Time;durP1;ratioP1;P1;durP2;ratioP2;P2;SDS_P1;SDS_P2;PMS_P1;PMS_P2;Temp;Humidity;BMP_temperature;BMP_pressure;BME280_temperature;BME280_humidity;BME280_pressure;Samples;Min_cycle;Max_cycle;Signal;HPM_P1;HPM_P2
2022/06/02 00:02:06;;;;;;;9.85;6.35;;;;;;;12.96;59.82;101900.38;5082373;28;20117;-63
2022/06/02 00:04:52;;;;;;;8.25;6.60;;;;;;;12.88;60.54;101897.97;5079707;28;20080;-63
2022/06/02 00:07:24;;;;;;;8.15;6.32;;;;;;;12.85;60.61;101904.06;5070858;28;20031;-62
2022/06/02 00:09:58;;;;;;;7.60;6.63;;;;;;;12.82;60.75;101901.75;5072724;28;20060;-62
2022/06/02 00:12:30;;;;;;;7.05;6.38;;;;;;;12.78;60.37;101906.09;5080369;28;20055;-62
2022/06/02 00:15:35;;;;;;;6.97;6.35;;;;;;;12.88;60.07;101902.69;5102587;28;20032;-62
2022/06/02 00:18:45;;;;;;;11.55;6.82;;;;;;;12.84;60.02;101901.50;5021135;28;20041;-62
2022/06/02 00:21:35;;;;;;;10.60;6.88;;;;;;;12.74;60.64;101896.53;5073324;28;20043;-63
2022/06/02 00:24:09;;;;;;;7.22;6.53;;;;;;;12.71;60.58;101899.81;5079032;28;20024;-63
2022/06/02 00:26:59;;;;;;;7.43;6.30;;;;;;;12.69;61.13;101904.75;5092784;28;20031;-62
2022/06/02 00:29:31;;;;;;;7.72;6.85;;;;;;;12.67;60.64;101905.00;5092575;28;20433;-62
2022/06/02 00:32:06;;;;;;;8.38;7.45;;;;;;;12.67;60.83;101907.78;5090897;28;20035;-63
2022/06/02 00:35:10;;;;;;;7.63;6.88;;;;;;;12.66;60.57;101899.69;5070270;28;20101;-62
2022/06/02 00:37:44;;;;;;;8.30;7.50;;;;;;;12.50;60.62;101909.59;5096407;28;20074;-63
2022/06/02 00:40:13;;;;;;;7.80;7.10;;;;;;;12.48;60.59;101909.81;5106822;28;20073;-63
2022/06/02 00:42:55;;;;;;;7.50;6.78;;;;;;;12.50;60.53;101910.44;5091934;28;20080;-63
2022/06/02 00:45:21;;;;;;;7.50;6.80;;;;;;;12.39;60.58;101908.50;5100760;28;20106;-63
2022/06/02 00:48:08;;;;;;;7.47;6.68;;;;;;;12.47;60.69;101905.34;5069600;28;20109;-63
2022/06/02 00:50:55;;;;;;;10.02;7.20;;;;;;;12.42;60.74;101916.38;5083173;28;20403;-64
2022/06/02 00:53:40;;;;;;;7.90;7.18;;;;;;;12.40;60.89;101920.47;5097427;28;20024;-63
2022/06/02 00:59:26;;;;;;;8.37;7.47;;;;;;;12.39;60.55;101927.13;5080779;28;20082;-62
2022/06/02 01:01:52;;;;;;;8.40;7.45;;;;;;;12.28;60.44;101926.00;5105288;28;20046;-62
2022/06/02 01:04:18;;;;;;;8.38;7.57;;;;;;;12.21;60.81;101925.25;5087992;28;20032;-63
2022/06/02 01:07:15;;;;;;;8.30;7.30;;;;;;;12.21;60.86;101920.53;5091563;28;20034;-63
2022/06/02 01:10:12;;;;;;;10.70;8.15;;;;;;;12.21;60.64;101917.75;5086512;28;20067;-63
2022/06/02 01:13:02;;;;;;;8.50;7.18;;;;;;;12.20;60.88;101915.22;5093583;28;20084;-63
2022/06/02 01:15:51;;;;;;;8.68;7.75;;;;;;;12.19;60.84;101913.53;5070215;28;20036;-63
2022/06/02 01:18:37;;;;;;;9.20;7.85;;;;;;;12.20;60.57;101915.22;5083631;28;20163;-62
2022/06/02 01:21:20;;;;;;;9.40;8.50;;;;;;;12.03;61.06;101913.13;5092112;28;20032;-63
2022/06/02 01:24:02;;;;;;;8.38;7.57;;;;;;;12.08;60.95;101911.56;5075666;28;20033;-63
2022/06/02 01:26:40;;;;;;;8.63;7.83;;;;;;;12.07;60.81;101907.94;5083573;28;20035;-63
2022/06/02 01:29:14;;;;;;;9.15;8.20;;;;;;;12.01;61.06;101915.28;5090109;28;20056;-63
2022/06/02 01:31:49;;;;;;;9.63;7.82;;;;;;;11.87;61.32;101922.16;5105993;28;20067;-63
2022/06/02 01:34:26;;;;;;;9.27;8.32;;;;;;;11.89;61.20;101917.19;5080502;28;20028;-63
2022/06/02 01:37:09;;;;;;;8.52;7.60;;;;;;;11.92;60.83;101916.72;5106651;28;20032;-63
2022/06/02 01:39:55;;;;;;;9.57;8.68;;;;;;;11.86;61.15;101926.00;5098954;28;20042;-63
2022/06/02 01:42:42;;;;;;;9.88;8.88;;;;;;;11.87;60.69;101924.06;5091545;28;20032;-63
2022/06/02 01:45:29;;;;;;;9.45;8.45;;;;;;;11.82;61.08;101921.09;5080944;28;20046;-63
2022/06/02 01:48:18;;;;;;;9.43;8.52;;;;;;;11.76;61.30;101925.69;5094694;28;20081;-63
2022/06/02 01:51:16;;;;;;;9.48;8.57;;;;;;;11.77;61.02;101917.09;5073187;28;20074;-62
2022/06/02 01:54:00;;;;;;;9.52;8.60;;;;;;;11.76;60.86;101911.78;5100579;28;20035;-62
2022/06/02 01:56:28;;;;;;;10.25;8.63;;;;;;;11.73;60.93;101915.03;5087657;28;20055;-63
2022/06/02 01:59:12;;;;;;;10.80;8.85;;;;;;;11.73;61.01;101917.81;5092933;28;20020;-63
2022/06/02 02:02:09;;;;;;;9.77;8.82;;;;;;;11.73;60.83;101915.88;5075445;28;20055;-62
2022/06/02 02:04:50;;;;;;;9.40;8.50;;;;;;;11.58;60.98;101917.38;5092325;28;20498;-62
2022/06/02 02:08:08;;;;;;;9.43;8.52;;;;;;;11.69;60.69;101927.69;5099285;28;20034;-62
2022/06/02 02:10:57;;;;;;;10.25;8.75;;;;;;;11.58;61.23;101926.56;5054905;28;20053;-62
2022/06/02 02:13:52;;;;;;;9.57;8.75;;;;;;;11.62;60.96;101921.38;5102493;28;20030;-62
2022/06/02 02:16:26;;;;;;;9.52;8.57;;;;;;;11.58;61.28;101926.56;5107777;28;20556;-62
2022/06/02 02:19:25;;;;;;;10.48;9.43;;;;;;;11.58;61.31;101928.50;5079312;28;20082;-62
2022/06/02 02:22:17;;;;;;;11.35;10.23;;;;;;;11.55;61.43;101932.56;5099840;28;20050;-63
2022/06/02 02:24:52;;;;;;;;;;;;;;;11.81;60.00;101931.38;5098673;28;20032;-62
2022/06/02 02:27:25;;;;;;;11.35;10.18;;;;;;;11.57;61.42;101933.22;5101463;28;20015;-63
2022/06/02 02:30:12;;;;;;;12.40;10.50;;;;;;;11.55;61.34;101933.44;5098258;28;20147;-62
2022/06/02 02:32:56;;;;;;;11.68;10.63;;;;;;;11.47;61.52;101939.28;5082754;28;20032;-63
2022/06/02 02:35:29;;;;;;;11.55;10.18;;;;;;;11.44;61.50;101933.38;5101212;28;20472;-63
2022/06/02 02:38:03;;;;;;;12.32;11.02;;;;;;;11.43;61.53;101931.66;5093881;28;20360;-62
2022/06/02 02:40:45;;;;;;;12.32;11.13;;;;;;;11.40;61.78;101935.78;5082649;28;20470;-62
2022/06/02 02:43:24;;;;;;;12.80;11.57;;;;;;;11.35;61.78;101932.81;5099033;28;20496;-62
2022/06/02 02:45:55;;;;;;;11.75;10.68;;;;;;;11.28;61.83;101932.06;5096988;28;20065;-63
2022/06/02 02:48:53;;;;;;;12.23;11.00;;;;;;;11.40;61.49;101937.72;5096932;28;20103;-62
2022/06/02 02:51:33;;;;;;;13.02;11.75;;;;;;;11.28;61.69;101937.63;5093660;28;20024;-63
2022/06/02 02:54:15;;;;;;;13.02;11.82;;;;;;;11.30;61.71;101933.53;5104895;28;20430;-63
2022/06/02 02:56:59;;;;;;;13.35;12.00;;;;;;;11.30;61.55;101935.47;5083167;28;20027;-63
2022/06/02 02:59:49;;;;;;;12.85;11.65;;;;;;;11.19;61.49;101944.56;5087233;28;20050;-63
2022/06/02 03:02:19;;;;;;;13.88;12.50;;;;;;;11.13;61.67;101945.50;5076579;28;20102;-63
2022/06/02 03:04:53;;;;;;;13.75;12.35;;;;;;;11.05;61.87;101939.16;5105458;28;20387;-63
2022/06/02 03:07:22;;;;;;;13.82;12.07;;;;;;;11.00;61.83;101943.69;5082975;28;20108;-63
2022/06/02 03:09:57;;;;;;;14.07;12.20;;;;;;;11.01;61.71;101943.47;5084434;28;20028;-63
2022/06/02 03:12:49;;;;;;;13.00;11.70;;;;;;;11.00;61.84;101952.91;5089668;28;20058;-62
2022/06/02 03:15:35;;;;;;;12.95;11.68;;;;;;;11.05;61.44;101954.97;5098006;28;20467;-63
2022/06/02 03:18:30;;;;;;;13.68;12.23;;;;;;;11.01;61.63;101956.53;5089087;28;20360;-63
2022/06/02 03:21:04;;;;;;;13.82;12.43;;;;;;;10.91;61.62;101964.50;5085765;28;20035;-63
2022/06/02 03:24:02;;;;;;;13.75;12.30;;;;;;;11.01;61.55;101956.53;5100964;28;20035;-63
2022/06/02 03:26:46;;;;;;;14.98;13.57;;;;;;;10.91;61.86;101962.59;5073901;28;20039;-63
2022/06/02 03:29:33;;;;;;;15.27;13.68;;;;;;;10.97;61.74;101978.34;5095476;28;20043;-63
2022/06/02 03:32:35;;;;;;;15.80;14.18;;;;;;;11.01;61.43;101970.41;5086955;28;20512;-63
2022/06/02 03:35:37;;;;;;;15.57;14.13;;;;;;;10.89;61.51;101975.88;5072414;28;20024;-63
2022/06/02 03:38:11;;;;;;;16.08;14.35;;;;;;;10.90;61.69;101974.78;5093492;28;20028;-63
2022/06/02 03:41:00;;;;;;;15.88;14.27;;;;;;;10.84;61.92;101981.22;5082275;28;20486;-63
2022/06/02 03:43:37;;;;;;;16.88;15.18;;;;;;;10.80;61.98;101978.06;5074616;28;20043;-63
2022/06/02 03:46:24;;;;;;;17.52;15.75;;;;;;;10.85;62.13;101987.66;5092080;28;20111;-63
2022/06/02 03:49:27;;;;;;;18.05;15.57;;;;;;;10.85;62.23;101984.88;5104257;28;20103;-63
2022/06/02 03:52:07;;;;;;;18.55;16.48;;;;;;;10.79;62.45;101998.59;5085312;28;20133;-62
2022/06/02 03:54:38;;;;;;;22.08;17.15;;;;;;;10.80;62.52;101991.09;5078424;28;20023;-62
2022/06/02 03:57:13;;;;;;;18.30;16.40;;;;;;;10.76;62.42;101999.03;5102544;28;20028;-62
2022/06/02 03:59:57;;;;;;;19.75;17.75;;;;;;;10.83;62.48;101993.44;5081462;28;20048;-62
2022/06/02 04:02:36;;;;;;;19.90;17.83;;;;;;;10.81;62.75;101993.66;5101262;28;20367;-62
2022/06/02 04:05:19;;;;;;;18.70;16.80;;;;;;;10.84;62.30;102002.59;5095400;28;20233;-62
2022/06/02 04:08:03;;;;;;;18.35;16.20;;;;;;;10.77;62.87;102008.25;5092022;28;20035;-62
2022/06/02 04:10:57;;;;;;;19.63;17.50;;;;;;;10.83;62.42;101996.19;5077620;28;20560;-62
2022/06/02 04:13:38;;;;;;;19.15;17.25;;;;;;;10.75;62.99;102008.44;5089898;28;20032;-62
2022/06/02 04:16:22;;;;;;;20.00;18.00;;;;;;;10.81;62.74;102006.72;5079066;28;20032;-62
2022/06/02 04:18:53;;;;;;;20.38;18.17;;;;;;;10.72;63.19;102008.03;5073026;28;20090;-63
2022/06/02 04:21:53;;;;;;;21.23;18.00;;;;;;;10.77;62.87;102008.25;5095714;28;20032;-62
2022/06/02 04:24:50;;;;;;;21.55;18.52;;;;;;;10.76;63.01;102015.69;5092837;28;20046;-62
2022/06/02 04:27:43;;;;;;;20.75;18.65;;;;;;;10.75;63.07;102016.78;5084498;28;20065;-62
2022/06/02 04:30:20;;;;;;;21.80;19.60;;;;;;;10.74;63.92;102019.78;5075838;28;20045;-62
2022/06/02 04:33:23;;;;;;;22.92;19.35;;;;;;;10.81;63.48;102023.38;5076966;28;20052;-62
2022/06/02 04:36:03;;;;;;;22.77;20.42;;;;;;;10.80;63.85;102019.72;5101579;28;20032;-62
2022/06/02 04:38:51;;;;;;;23.05;20.15;;;;;;;10.76;64.18;102023.16;5078114;28;20051;-62
2022/06/02 04:41:36;;;;;;;24.10;20.75;;;;;;;10.86;64.13;102028.25;5099319;28;20107;-62
2022/06/02 04:44:21;;;;;;;24.40;20.25;;;;;;;10.86;64.47;102023.53;5077977;28;20086;-62
2022/06/02 04:47:14;;;;;;;25.83;22.00;;;;;;;10.91;64.26;102025.63;5101763;28;20055;-62
2022/06/02 04:49:48;;;;;;;26.85;23.63;;;;;;;10.93;64.98;102029.88;5068550;28;20040;-62
2022/06/02 04:52:53;;;;;;;27.52;24.52;;;;;;;11.09;64.11;102034.03;5094042;28;20032;-62
2022/06/02 04:55:41;;;;;;;27.50;24.67;;;;;;;11.11;65.17;102020.72;5091600;28;20497;-62
2022/06/02 04:58:14;;;;;;;27.25;24.33;;;;;;;11.17;65.17;102030.09;5073731;28;20103;-63
2022/06/02 05:00:52;;;;;;;28.23;25.25;;;;;;;11.23;65.18;102023.59;5075338;28;20052;-62
2022/06/02 05:03:45;;;;;;;27.10;24.23;;;;;;;11.25;65.13;102021.47;5074382;28;20029;-62
2022/06/02 05:06:13;;;;;;;29.20;25.65;;;;;;;11.24;65.54;102020.63;5085755;28;20487;-63
2022/06/02 05:09:10;;;;;;;27.88;24.80;;;;;;;11.38;64.73;102026.88;5108882;28;20036;-62
2022/06/02 05:11:35;;;;;;;29.02;25.92;;;;;;;11.35;65.91;102029.25;5096682;28;20024;-62
2022/06/02 05:14:11;;;;;;;28.10;25.05;;;;;;;11.40;66.05;102030.28;5110499;28;20042;-63
2022/06/02 05:16:53;;;;;;;30.58;26.08;;;;;;;11.46;65.91;102029.34;5087297;28;20040;-63
2022/06/02 05:19:47;;;;;;;31.63;26.67;;;;;;;11.53;65.81;102038.47;5088676;28;20032;-65
2022/06/02 05:22:40;;;;;;;31.10;27.27;;;;;;;11.57;65.58;102038.88;5077116;28;20025;-61
2022/06/02 05:25:30;;;;;;;33.85;27.67;;;;;;;11.66;65.53;102039.41;5083041;28;20081;-62
2022/06/02 05:28:15;;;;;;;30.95;27.65;;;;;;;11.68;66.38;102032.53;5069477;28;20036;-62
2022/06/02 05:31:00;;;;;;;30.52;25.88;;;;;;;11.77;66.08;102027.50;5089624;28;20040;-61
2022/06/02 05:33:45;;;;;;;29.90;26.70;;;;;;;11.86;66.19;102030.84;5090798;28;20032;-62
2022/06/02 05:36:37;;;;;;;29.75;26.55;;;;;;;12.02;65.06;102033.88;5089728;28;20048;-62
2022/06/02 05:39:18;;;;;;;30.63;26.73;;;;;;;12.09;65.32;102035.69;5097500;28;20027;-62
2022/06/02 05:42:05;;;;;;;31.40;27.42;;;;;;;12.13;65.56;102032.22;5088835;28;20079;-62
2022/06/02 05:44:58;;;;;;;31.13;25.85;;;;;;;12.22;65.21;102029.94;5082746;28;20031;-62
2022/06/02 05:48:00;;;;;;;29.08;25.95;;;;;;;12.36;65.18;102039.81;5094485;28;20033;-62
2022/06/02 05:50:32;;;;;;;29.55;26.13;;;;;;;12.46;65.48;102039.25;5071345;28;20502;-62
2022/06/02 05:53:22;;;;;;;29.23;26.13;;;;;;;12.55;65.50;102037.84;5086550;28;20062;-62
2022/06/02 05:56:03;;;;;;;31.15;25.55;;;;;;;12.65;65.66;102046.44;5081608;28;20040;-62
2022/06/02 05:58:59;;;;;;;29.00;25.90;;;;;;;12.78;65.08;102042.63;5083230;28;20058;-62
2022/06/02 06:02:02;;;;;;;28.15;25.08;;;;;;;12.89;65.34;102050.16;5084511;28;20055;-62
2022/06/02 06:04:33;;;;;;;26.52;22.25;;;;;;;13.05;64.96;102053.31;5073114;28;20118;-63
2022/06/02 06:07:08;;;;;;;24.58;21.40;;;;;;;13.10;65.41;102056.25;5088903;28;20079;-62
2022/06/02 06:09:55;;;;;;;24.33;21.33;;;;;;;13.24;64.37;102057.72;5080272;28;20029;-62
2022/06/02 06:12:35;;;;;;;22.63;20.23;;;;;;;13.30;64.10;102062.34;5088350;28;20089;-62
2022/06/02 06:15:21;;;;;;;23.13;20.73;;;;;;;13.41;63.73;102069.03;5080948;28;20038;-62
2022/06/02 06:18:05;;;;;;;23.58;20.90;;;;;;;13.47;63.90;102068.03;5076170;28;22333;-63
2022/06/02 06:20:45;;;;;;;22.73;20.50;;;;;;;13.58;64.12;102071.91;5079557;28;20040;-62
2022/06/02 06:23:29;;;;;;;23.30;20.75;;;;;;;13.65;63.80;102072.66;5077609;28;20051;-61
2022/06/02 06:26:34;;;;;;;23.25;20.60;;;;;;;13.73;64.10;102073.13;5088918;28;20114;-61
2022/06/02 06:29:37;;;;;;;24.55;21.55;;;;;;;13.82;63.44;102079.16;5085093;28;20077;-62
2022/06/02 06:32:18;;;;;;;;;;;;;;;13.98;62.82;102080.34;5106023;28;20030;-62
2022/06/02 06:34:51;;;;;;;23.83;19.98;;;;;;;14.00;64.03;102090.19;5084719;28;19919;-63
2022/06/02 06:37:35;;;;;;;21.63;19.30;;;;;;;14.10;62.87;102086.75;5089326;28;20421;-62
2022/06/02 06:40:12;;;;;;;20.65;17.92;;;;;;;14.12;62.23;102084.56;5087900;28;20027;-61
2022/06/02 06:43:09;;;;;;;21.13;17.73;;;;;;;14.22;62.38;102090.34;5080138;28;20024;-61
2022/06/02 06:46:00;;;;;;;20.42;17.30;;;;;;;14.30;62.80;102091.06;5095780;28;20028;-61
2022/06/02 06:48:39;;;;;;;16.60;14.90;;;;;;;14.38;62.42;102094.34;5085973;28;20034;-62
2022/06/02 06:51:11;;;;;;;16.40;14.70;;;;;;;14.44;61.83;102095.28;5088097;28;20032;-61
2022/06/02 06:53:48;;;;;;;16.90;14.93;;;;;;;14.49;61.94;102096.25;5094809;28;20036;-61
2022/06/02 06:56:24;;;;;;;16.25;14.55;;;;;;;14.50;60.82;102105.47;5087248;28;20390;-61
2022/06/02 06:59:03;;;;;;;12.50;11.30;;;;;;;14.54;60.54;102103.91;5090727;28;20032;-61
2022/06/02 07:01:43;;;;;;;13.82;12.43;;;;;;;14.60;60.87;102102.88;5088263;28;20060;-61
2022/06/02 07:04:30;;;;;;;15.75;13.77;;;;;;;14.69;60.89;102108.91;5104514;28;20039;-61
2022/06/02 07:07:19;;;;;;;16.38;14.70;;;;;;;14.80;60.80;102113.59;5085556;28;20122;-61
2022/06/02 07:09:50;;;;;;;16.45;14.63;;;;;;;14.82;60.67;102103.03;5066319;28;20132;-61
2022/06/02 07:15:40;;;;;;;15.57;13.80;;;;;;;14.91;60.36;102111.84;5081744;28;20118;-61
2022/06/02 07:18:23;;;;;;;13.07;11.73;;;;;;;14.92;59.79;102114.38;5092247;28;20417;-61
2022/06/02 07:20:57;;;;;;;11.35;9.73;;;;;;;14.97;59.07;102116.44;5102011;28;20045;-61
2022/06/02 07:23:55;;;;;;;11.30;10.23;;;;;;;15.11;58.96;102123.41;5101675;28;20080;-60
2022/06/02 07:26:48;;;;;;;12.20;11.02;;;;;;;15.16;58.80;102114.25;5082991;28;20036;-62
2022/06/02 07:29:49;;;;;;;10.85;9.85;;;;;;;15.34;58.90;102127.16;5069955;28;20032;-62
2022/06/02 07:32:33;;;;;;;11.88;10.63;;;;;;;15.42;57.03;102123.94;5058797;28;20068;-62
2022/06/02 07:35:26;;;;;;;11.60;9.43;;;;;;;15.42;57.04;102135.97;5101940;28;20479;-60
2022/06/02 07:38:28;;;;;;;10.98;9.82;;;;;;;15.32;57.79;102133.00;5073606;28;20028;-60
2022/06/02 07:41:16;;;;;;;13.25;11.95;;;;;;;15.20;57.49;102140.59;5093798;28;20470;-61
2022/06/02 07:44:15;;;;;;;12.75;11.45;;;;;;;15.06;58.51;102136.47;5095827;28;20058;-61
2022/06/02 07:47:08;;;;;;;11.93;10.73;;;;;;;15.03;58.65;102136.97;5079109;28;20041;-62
2022/06/02 07:50:02;;;;;;;12.43;11.20;;;;;;;14.94;58.97;102133.72;5074096;28;20110;-62
2022/06/02 07:52:36;;;;;;;13.63;12.13;;;;;;;14.83;58.62;102132.69;5090738;28;20390;-61
2022/06/02 07:55:18;;;;;;;43.75;13.25;;;;;;;14.81;58.80;102137.66;5081818;27;20058;-61
2022/06/02 07:58:00;;;;;;;16.67;12.75;;;;;;;14.75;58.81;102130.28;5089806;28;20039;-63
2022/06/02 08:00:31;;;;;;;13.75;12.27;;;;;;;14.72;59.17;102130.78;5102155;28;20028;-62
2022/06/02 08:03:08;;;;;;;13.02;11.50;;;;;;;14.72;59.29;102125.19;5102997;28;20494;-63
2022/06/02 08:05:52;;;;;;;14.07;12.10;;;;;;;14.72;59.82;102122.41;5085496;28;20040;-63
2022/06/02 08:08:56;;;;;;;13.55;11.65;;;;;;;14.76;59.00;102126.38;5084989;28;20030;-63
2022/06/02 08:11:48;;;;;;;13.13;11.75;;;;;;;14.84;59.09;102130.72;5062031;28;20051;-61
2022/06/02 08:14:32;;;;;;;;;;;;;;;15.06;58.98;102128.06;5106878;28;20059;-61
2022/06/02 08:17:05;;;;;;;13.25;11.95;;;;;;;15.22;58.21;102130.03;5078338;28;19927;-61
2022/06/02 08:19:39;;;;;;;;;;;;;;;15.34;58.70;102132.75;5084287;28;20024;-62
2022/06/02 08:22:09;;;;;;;13.95;11.82;;;;;;;15.31;57.62;102128.50;5073001;28;19918;-64
2022/06/02 08:24:44;;;;;;;12.60;11.00;;;;;;;15.27;55.50;102124.50;5084437;28;20020;-62
2022/06/02 08:27:41;;;;;;;11.68;10.57;;;;;;;15.26;57.08;102128.44;5074248;28;20059;-62
2022/06/02 08:30:25;;;;;;;10.52;9.52;;;;;;;15.17;56.33;102128.00;5067568;28;20059;-62
2022/06/02 08:33:08;;;;;;;11.88;10.57;;;;;;;15.20;57.09;102129.41;5087456;28;20024;-62
2022/06/02 08:35:44;;;;;;;9.73;8.63;;;;;;;15.32;56.37;102134.94;5081870;28;20036;-63
2022/06/02 08:38:38;;;;;;;10.20;9.20;;;;;;;15.33;56.53;102131.91;5079163;28;20446;-63
2022/06/02 08:41:41;;;;;;;11.23;10.05;;;;;;;15.51;57.13;102139.19;5100563;28;20035;-63
2022/06/02 08:44:06;;;;;;;;;;;;;;;15.68;57.30;102139.22;5085570;28;20034;-64
2022/06/02 08:46:59;;;;;;;11.10;10.00;;;;;;;15.79;56.25;102140.19;5073808;28;20340;-62
2022/06/02 08:49:30;;;;;;;11.35;10.25;;;;;;;15.86;55.76;102150.13;5073856;28;20340;-62
2022/06/02 08:52:14;;;;;;;10.68;9.57;;;;;;;15.99;55.71;102145.25;5080352;28;20059;-62
2022/06/02 08:54:54;;;;;;;8.88;7.95;;;;;;;16.09;54.03;102139.81;5083786;28;20466;-63
2022/06/02 08:57:31;;;;;;;8.90;7.80;;;;;;;16.22;53.70;102138.56;5081944;28;20024;-64
2022/06/02 09:00:20;;;;;;;8.45;7.40;;;;;;;16.32;53.59;102145.16;5081770;28;20024;-64
2022/06/02 09:02:51;;;;;;;6.57;5.97;;;;;;;16.38;52.20;102132.91;5099936;28;20044;-65
2022/06/02 09:05:47;;;;;;;7.97;7.00;;;;;;;16.50;53.27;102127.16;5073561;28;20066;-65
2022/06/02 09:08:20;;;;;;;6.28;5.53;;;;;;;16.54;50.07;102130.28;5077011;28;20040;-67
2022/06/02 09:11:06;;;;;;;6.60;5.97;;;;;;;16.58;50.56;102132.31;5091341;28;20110;-66
2022/06/02 09:13:50;;;;;;;7.35;5.68;;;;;;;16.61;49.58;102131.78;5072959;28;20032;-63
2022/06/02 09:16:42;;;;;;;7.00;6.13;;;;;;;16.65;50.92;102130.16;5073733;28;20028;-61
2022/06/02 09:19:44;;;;;;;7.03;6.43;;;;;;;16.69;50.91;102138.88;5077306;28;20032;-61
2022/06/02 09:22:09;;;;;;;7.47;6.55;;;;;;;16.86;52.68;102134.06;5083057;28;20028;-62
2022/06/02 09:25:12;;;;;;;9.13;8.30;;;;;;;16.89;52.02;102138.28;5072353;28;20125;-62
2022/06/02 09:28:02;;;;;;;8.57;7.78;;;;;;;17.00;51.88;102133.63;5072681;28;20036;-62
2022/06/02 09:30:40;;;;;;;7.95;7.25;;;;;;;17.08;50.93;102128.38;5082444;28;20031;-62
2022/06/02 09:33:43;;;;;;;8.80;7.90;;;;;;;17.05;49.80;102126.09;5090414;27;20632;-62
2022/06/02 09:36:42;;;;;;;9.93;8.32;;;;;;;17.15;50.73;102131.81;5077056;28;20489;-61
2022/06/02 09:39:10;;;;;;;8.27;7.55;;;;;;;17.25;49.71;102131.09;5092150;28;20040;-61
2022/06/02 09:42:01;;;;;;;8.30;7.60;;;;;;;17.31;49.71;102129.16;5093129;28;20370;-61
2022/06/02 09:44:56;;;;;;;10.30;8.02;;;;;;;17.41;50.82;102123.66;5082587;28;20032;-61
2022/06/02 09:47:51;;;;;;;9.43;8.63;;;;;;;17.49;50.77;102122.28;5092183;28;20043;-61
2022/06/02 09:50:23;;;;;;;9.75;8.75;;;;;;;17.46;49.22;102129.28;5074195;28;20036;-61
2022/06/02 09:53:07;;;;;;;;;;;;;;;17.54;50.89;102116.72;5082347;28;20627;-62
2022/06/02 09:56:05;;;;;;;9.07;8.13;;;;;;;17.57;50.51;102127.41;5103661;28;19920;-61
2022/06/02 09:58:49;;;;;;;9.38;8.57;;;;;;;17.56;50.43;102132.16;5102605;28;20024;-60
2022/06/02 10:01:38;;;;;;;9.20;8.30;;;;;;;17.63;49.36;102123.50;5109741;28;20071;-61
2022/06/02 10:04:41;;;;;;;8.45;7.65;;;;;;;17.72;50.05;102123.84;5100299;28;20036;-62
2022/06/02 10:07:17;;;;;;;;;;;;;;;17.80;50.35;102132.66;5096882;28;20520;-61
2022/06/02 10:10:23;;;;;;;8.90;8.00;;;;;;;17.77;48.51;102126.75;5080898;28;19931;-61
2022/06/02 10:13:15;;;;;;;8.05;7.35;;;;;;;17.84;48.52;102127.34;5078539;28;20391;-61
2022/06/02 10:15:41;;;;;;;7.03;6.32;;;;;;;17.99;47.55;102121.81;5080436;28;20106;-61
2022/06/02 10:18:27;;;;;;;6.88;6.05;;;;;;;17.99;46.81;102119.00;5096943;28;20118;-62
2022/06/02 10:21:11;;;;;;;8.20;7.40;;;;;;;18.04;47.74;102121.03;5086504;28;20035;-61
2022/06/02 10:23:55;;;;;;;9.23;7.70;;;;;;;18.00;47.28;102109.47;5087334;28;20161;-61
2022/06/02 10:26:47;;;;;;;8.93;8.07;;;;;;;17.93;46.60;102120.09;5094754;28;20080;-61
2022/06/02 10:29:28;;;;;;;7.68;6.97;;;;;;;18.00;46.48;102112.28;5086653;28;20028;-61
2022/06/02 10:32:15;;;;;;;6.85;6.25;;;;;;;17.98;47.62;102106.09;5076502;28;20417;-61
2022/06/02 10:34:46;;;;;;;7.40;6.55;;;;;;;17.83;46.13;102109.63;5090533;28;20034;-61
2022/06/02 10:37:39;;;;;;;7.35;6.65;;;;;;;17.82;46.58;102118.34;5089700;28;20028;-62
2022/06/02 10:40:15;;;;;;;7.70;6.10;;;;;;;17.79;45.83;102105.69;5079495;28;20035;-59
2022/06/02 10:43:13;;;;;;;8.10;7.22;;;;;;;17.81;45.59;102109.09;5081050;28;20028;-61
2022/06/02 10:45:38;;;;;;;7.93;7.10;;;;;;;17.67;45.37;102105.00;5087439;28;20031;-61
2022/06/02 10:48:46;;;;;;;9.57;6.85;;;;;;;17.68;46.81;102106.69;5078811;28;20028;-61
2022/06/02 10:51:17;;;;;;;7.60;6.90;;;;;;;17.59;46.34;102111.97;5090613;28;20024;-61
2022/06/02 10:54:20;;;;;;;7.80;7.07;;;;;;;17.65;47.16;102098.84;5092628;28;20032;-61
2022/06/02 10:57:03;;;;;;;8.70;7.85;;;;;;;17.69;47.48;102101.94;5104176;28;20398;-61
2022/06/02 10:59:53;;;;;;;7.78;7.05;;;;;;;17.80;46.87;102090.53;5091283;28;20030;-60
2022/06/02 11:02:57;;;;;;;8.70;8.00;;;;;;;17.91;47.13;102097.88;5099714;28;20105;-61
2022/06/02 11:06:07;;;;;;;9.57;8.20;;;;;;;17.92;46.93;102093.13;5089175;28;20048;-61
2022/06/02 11:08:45;;;;;;;9.77;8.88;;;;;;;17.96;46.63;102096.22;5059381;28;20051;-61
2022/06/02 11:11:41;;;;;;;8.05;7.32;;;;;;;18.01;47.16;102099.09;5102847;28;20051;-61
2022/06/02 11:14:39;;;;;;;8.73;7.93;;;;;;;17.95;47.41;102091.72;5093831;28;20387;-61
2022/06/02 11:17:19;;;;;;;8.80;7.90;;;;;;;18.01;47.15;102096.28;5082418;28;20028;-61
2022/06/02 11:20:06;;;;;;;8.57;7.28;;;;;;;18.08;46.85;102088.44;5076029;28;20051;-61
2022/06/02 11:22:53;;;;;;;8.45;7.55;;;;;;;18.04;46.22;102087.31;5086487;28;20540;-61
2022/06/02 11:25:42;;;;;;;7.35;6.65;;;;;;;18.04;45.49;102085.34;5086735;28;20040;-60
2022/06/02 11:28:45;;;;;;;8.55;7.47;;;;;;;18.17;46.01;102088.75;5082790;28;20415;-60
2022/06/02 11:31:26;;;;;;;7.28;6.57;;;;;;;18.21;44.67;102081.47;5068565;28;20040;-60
2022/06/02 11:34:10;;;;;;;8.18;7.47;;;;;;;18.17;44.68;102080.34;5080324;28;20115;-60
2022/06/02 11:36:56;;;;;;;9.15;7.38;;;;;;;18.10;44.66;102075.78;5101036;28;20036;-60
2022/06/02 11:39:49;;;;;;;6.70;6.13;;;;;;;18.17;45.98;102081.16;5104568;28;20766;-61
2022/06/02 11:42:37;;;;;;;8.18;7.38;;;;;;;18.28;45.91;102077.28;5090690;28;20060;-61
2022/06/02 11:45:21;;;;;;;8.65;7.85;;;;;;;18.36;45.35;102073.09;5091324;28;20119;-61
2022/06/02 11:48:12;;;;;;;7.40;6.70;;;;;;;18.40;45.11;102075.06;5090569;28;20028;-61
2022/06/02 11:50:55;;;;;;;7.35;6.72;;;;;;;18.37;44.39;102057.91;5095795;28;20028;-61
2022/06/02 11:53:29;;;;;;;7.10;6.05;;;;;;;18.34;44.02;102056.50;5097786;28;20497;-60
2022/06/02 11:56:11;;;;;;;8.48;6.68;;;;;;;18.27;43.78;102050.28;5098359;28;20088;-62
2022/06/02 11:59:21;;;;;;;7.05;6.30;;;;;;;18.25;44.57;102049.72;5076723;28;20039;-62
2022/06/02 12:02:21;;;;;;;6.80;6.20;;;;;;;18.22;44.18;102049.44;5079102;28;20498;-61
2022/06/02 12:05:24;;;;;;;6.15;5.30;;;;;;;18.17;43.91;102044.63;5036686;28;20060;-62
2022/06/02 12:07:49;;;;;;;;;;;;;;;18.32;44.70;102047.50;5085306;28;20108;-62
2022/06/02 12:10:49;;;;;;;6.77;6.07;;;;;;;18.31;44.40;102040.22;5091247;28;19915;-61
2022/06/02 12:13:52;;;;;;;7.25;6.50;;;;;;;18.28;44.72;102049.19;5083525;28;20773;-61
2022/06/02 12:16:39;;;;;;;7.28;6.63;;;;;;;18.26;43.59;102042.97;5081595;28;20749;-63
2022/06/02 12:19:25;;;;;;;6.30;5.80;;;;;;;18.26;43.65;102030.91;5079529;28;20031;-62
2022/06/02 12:22:01;;;;;;;6.97;6.35;;;;;;;18.28;42.97;102035.13;5088944;28;20102;-62
2022/06/02 12:25:02;;;;;;;6.65;6.07;;;;;;;18.39;44.48;102028.41;5075756;28;20036;-62
2022/06/02 12:27:46;;;;;;;7.07;6.47;;;;;;;18.51;43.40;102024.47;5074431;27;20857;-61
2022/06/02 12:30:23;;;;;;;6.75;6.10;;;;;;;18.55;42.85;102025.63;5075789;28;20032;-61
2022/06/02 12:33:40;;;;;;;5.50;5.00;;;;;;;18.66;44.00;102021.69;5074304;28;20788;-61
2022/06/02 12:36:26;;;;;;;6.68;6.13;;;;;;;18.73;43.17;102027.94;5040703;28;20496;-62
2022/06/02 12:39:03;;;;;;;6.93;5.93;;;;;;;18.76;42.73;102021.75;5074977;28;20040;-63
2022/06/02 12:41:52;;;;;;;6.18;5.68;;;;;;;18.82;42.32;102020.66;5084598;28;20066;-63
2022/06/02 12:44:30;;;;;;;7.78;7.07;;;;;;;18.85;41.76;102013.59;5080394;28;20038;-62
2022/06/02 12:47:17;;;;;;;7.43;6.72;;;;;;;18.83;41.24;102016.69;5082373;28;20039;-62
2022/06/02 12:50:20;;;;;;;6.28;5.68;;;;;;;18.88;42.45;102001.78;5104069;28;20051;-62